Time;durP1;ratioP1;P1;durP2;ratioP2;P2;SDS_P1;SDS_P2;PMS_P1;PMS_P2;Temp;Humidity;BMP_temperature;BMP_pressure;BME280_temperature;BME280_humidity;BME280_pressure;Samples;Min_cycle;Max_cycle;Signal;HPM_P1;HPM_P2
2021/05/05 00:02:07;;;;;;;6.72;3.42;;;12.20;73.20;;;;;;5073429;28;20024;-73
2021/05/05 00:04:33;;;;;;;4.85;3.30;;;12.30;72.80;;;;;;5055743;28;20545;-73
2021/05/05 00:06:59;;;;;;;3.33;3.03;;;12.30;73.20;;;;;;5055024;28;20017;-73
2021/05/05 00:09:25;;;;;;;5.03;3.35;;;12.20;73.20;;;;;;5055630;28;20376;-73
2021/05/05 00:11:52;;;;;;;3.97;2.92;;;12.10;73.60;;;;;;5055641;28;20031;-72
2021/05/05 00:14:19;;;;;;;4.50;3.10;;;12.00;74.00;;;;;;5073436;28;20037;-73
2021/05/05 00:16:45;;;;;;;6.93;3.25;;;12.10;74.20;;;;;;5073570;28;20107;-73
2021/05/05 00:19:13;;;;;;;5.47;3.25;;;12.20;73.70;;;;;;5055502;28;20024;-73
2021/05/05 00:21:39;;;;;;;4.65;3.70;;;12.30;73.30;;;;;;5072261;28;20025;-73
2021/05/05 00:24:05;;;;;;;6.22;3.25;;;12.20;73.40;;;;;;5055331;28;20024;-73
2021/05/05 00:26:31;;;;;;;4.65;2.90;;;12.20;73.50;;;;;;5054586;28;20069;-73
2021/05/05 00:28:57;;;;;;;4.20;3.00;;;12.30;74.40;;;;;;5038343;28;20539;-73
2021/05/05 00:31:23;;;;;;;4.45;2.70;;;12.50;72.80;;;;;;5055549;28;20491;-73
2021/05/05 00:33:49;;;;;;;4.47;2.90;;;12.70;72.40;;;;;;5055210;28;20488;-73
2021/05/05 00:36:15;;;;;;;3.80;2.88;;;12.70;72.40;;;;;;5054695;28;20028;-73
2021/05/05 00:38:40;;;;;;;4.78;3.35;;;12.70;72.00;;;;;;5072759;28;20032;-73
2021/05/05 00:41:10;;;;;;;4.80;3.17;;;12.60;72.40;;;;;;5073063;28;20464;-73
2021/05/05 00:43:36;;;;;;;4.05;3.28;;;12.60;74.40;;;;;;5073312;28;20074;-73
2021/05/05 00:46:03;;;;;;;6.72;4.32;;;12.60;75.20;;;;;;5073138;28;20024;-73
2021/05/05 00:48:29;;;;;;;5.22;2.95;;;12.70;74.50;;;;;;5055299;28;20088;-73
2021/05/05 00:50:56;;;;;;;5.63;3.42;;;12.80;74.00;;;;;;5072773;28;20050;-74
2021/05/05 00:53:22;;;;;;;5.35;3.53;;;12.80;73.50;;;;;;5038349;28;20029;-73
2021/05/05 00:55:48;;;;;;;7.25;3.13;;;12.80;73.60;;;;;;5054744;28;20021;-73
2021/05/05 00:58:16;;;;;;;5.38;3.20;;;12.80;73.40;;;;;;5054614;28;20032;-73
2021/05/05 01:00:45;;;;;;;6.32;3.10;;;12.90;73.60;;;;;;5072662;28;20044;-73
2021/05/05 01:03:11;;;;;;;5.30;3.40;;;13.00;73.00;;;;;;5072392;28;20066;-73
2021/05/05 01:05:37;;;;;;;7.70;4.00;;;13.10;72.40;;;;;;5054609;28;20020;-73
2021/05/05 01:08:05;;;;;;;4.03;3.10;;;13.00;72.50;;;;;;5072728;28;20025;-73
2021/05/05 01:10:31;;;;;;;9.38;3.65;;;13.00;72.60;;;;;;5054755;28;20021;-73
2021/05/05 01:12:57;;;;;;;7.95;4.05;;;13.00;72.20;;;;;;5054719;28;20031;-73
2021/05/05 01:15:23;;;;;;;6.03;3.03;;;13.00;72.10;;;;;;5038004;28;20454;-73
2021/05/05 01:17:49;;;;;;;6.32;3.50;;;12.80;72.90;;;;;;5072477;28;20392;-73
2021/05/05 01:20:15;;;;;;;4.70;3.53;;;12.60;73.00;;;;;;5054781;28;20039;-73
2021/05/05 01:22:41;;;;;;;6.15;3.30;;;12.60;73.60;;;;;;5054400;28;20024;-73
2021/05/05 01:25:08;;;;;;;4.95;2.88;;;12.80;73.00;;;;;;5072282;28;20029;-73
2021/05/05 01:27:34;;;;;;;5.60;3.22;;;13.00;71.90;;;;;;5054402;28;20020;-73
2021/05/05 01:29:59;;;;;;;9.52;3.38;;;12.80;71.80;;;;;;5072240;28;20035;-73
2021/05/05 01:32:26;;;;;;;6.45;3.55;;;12.80;72.20;;;;;;5054527;28;20024;-73
2021/05/05 01:34:52;;;;;;;3.92;3.38;;;12.80;72.50;;;;;;5054696;28;20034;-73
2021/05/05 01:37:18;;;;;;;5.72;3.67;;;12.80;73.00;;;;;;5074374;28;20135;-73
2021/05/05 01:39:44;;;;;;;3.58;2.95;;;12.60;73.40;;;;;;5058319;28;20123;-73
2021/05/05 01:42:10;;;;;;;4.10;2.72;;;12.50;73.40;;;;;;5041786;28;20589;-73
2021/05/05 01:44:38;;;;;;;3.30;2.90;;;12.30;74.90;;;;;;5076306;28;20115;-73
2021/05/05 01:47:04;;;;;;;5.25;3.17;;;12.30;77.00;;;;;;5058255;28;20025;-73
2021/05/05 01:49:31;;;;;;;3.85;3.40;;;12.30;77.10;;;;;;5075808;28;20017;-73
2021/05/05 01:52:02;;;;;;;4.38;3.47;;;12.20;77.70;;;;;;5075589;28;20454;-73
2021/05/05 01:54:28;;;;;;;5.45;3.75;;;12.20;78.40;;;;;;5058258;28;20025;-73
2021/05/05 01:57:14;;;;;;;9.30;3.45;;;12.20;77.30;;;;;;5057741;28;20495;-73
2021/05/05 01:59:39;;;;;;;7.65;3.25;;;12.10;77.90;;;;;;5075267;28;20039;-73
2021/05/05 02:02:05;;;;;;;5.28;3.40;;;12.20;77.30;;;;;;5057584;28;20029;-73
2021/05/05 02:04:31;;;;;;;5.18;3.33;;;12.10;77.00;;;;;;5057730;28;20104;-73
2021/05/05 02:06:56;;;;;;;7.43;4.00;;;12.20;76.90;;;;;;5057753;28;20541;-73
2021/05/05 02:09:22;;;;;;;3.75;3.15;;;12.30;77.10;;;;;;5057843;28;20028;-72
2021/05/05 02:11:48;;;;;;;6.57;2.97;;;12.20;77.30;;;;;;5057589;28;20032;-73
2021/05/05 02:14:13;;;;;;;4.80;3.15;;;12.20;77.50;;;;;;5057324;28;20060;-73
2021/05/05 02:16:39;;;;;;;6.00;3.75;;;12.10;78.20;;;;;;5075454;28;20055;-73
2021/05/05 02:19:05;;;;;;;4.65;3.33;;;12.00;78.90;;;;;;5057866;28;20033;-73
2021/05/05 02:21:31;;;;;;;3.80;3.42;;;11.90;80.10;;;;;;5075015;28;20388;-73
2021/05/05 02:23:56;;;;;;;6.47;4.10;;;11.90;80.40;;;;;;5057350;28;20477;-73
2021/05/05 02:26:22;;;;;;;9.38;3.88;;;12.00;80.70;;;;;;5075233;28;20078;-73
2021/05/05 02:28:48;;;;;;;7.57;3.42;;;12.10;79.20;;;;;;5075109;28;20099;-72
2021/05/05 02:31:14;;;;;;;5.20;3.38;;;12.00;79.60;;;;;;5057346;28;20052;-73
2021/05/05 02:33:39;;;;;;;3.63;3.30;;;11.90;80.20;;;;;;5057209;28;20036;-73
2021/05/05 02:36:05;;;;;;;5.40;3.80;;;11.70;80.60;;;;;;5075166;28;20070;-73
2021/05/05 02:38:31;;;;;;;3.97;3.47;;;11.70;81.60;;;;;;5056876;28;20088;-73
2021/05/05 02:40:57;;;;;;;4.03;3.42;;;11.80;80.30;;;;;;5074734;28;20036;-72
2021/05/05 02:43:22;;;;;;;6.22;3.45;;;12.00;80.60;;;;;;5057414;28;20544;-73
2021/05/05 02:45:48;;;;;;;6.90;4.10;;;12.10;80.60;;;;;;5074697;28;20032;-73
2021/05/05 02:48:14;;;;;;;6.72;3.35;;;12.20;79.20;;;;;;5056075;28;20032;-73
2021/05/05 02:50:39;;;;;;;4.13;2.88;;;12.20;79.20;;;;;;5057079;28;20491;-73
2021/05/05 02:53:05;;;;;;;5.40;3.60;;;12.30;77.40;;;;;;5056870;28;20067;-73
2021/05/05 02:55:31;;;;;;;4.13;2.85;;;12.30;76.00;;;;;;5074417;28;20384;-73
2021/05/05 02:57:57;;;;;;;4.40;3.42;;;12.10;75.80;;;;;;5056807;28;20028;-73
2021/05/05 03:00:23;;;;;;;8.25;3.38;;;12.00;76.30;;;;;;5056908;28;20108;-73
2021/05/05 03:02:49;;;;;;;8.35;3.78;;;12.00;76.70;;;;;;5056487;28;20472;-73
2021/05/05 03:05:15;;;;;;;4.88;3.30;;;12.10;76.60;;;;;;5056439;28;20396;-72
2021/05/05 03:07:40;;;;;;;3.78;2.75;;;12.10;75.80;;;;;;5056429;28;20044;-73
2021/05/05 03:10:08;;;;;;;3.80;3.38;;;12.10;75.50;;;;;;5074431;28;20461;-73
2021/05/05 03:12:33;;;;;;;3.65;3.20;;;11.80;78.30;;;;;;5074440;28;20752;-73
2021/05/05 03:14:59;;;;;;;4.80;3.67;;;11.50;81.30;;;;;;5056574;28;20063;-73
2021/05/05 03:17:25;;;;;;;4.38;3.47;;;11.10;83.10;;;;;;5074205;28;20035;-73
2021/05/05 03:19:51;;;;;;;6.72;3.80;;;11.00;85.00;;;;;;5056227;28;20033;-73
2021/05/05 03:22:18;;;;;;;5.68;3.90;;;11.00;86.20;;;;;;5074035;28;20506;-73
2021/05/05 03:24:44;;;;;;;6.97;3.70;;;10.90;85.90;;;;;;5056401;28;20024;-73
2021/05/05 03:27:10;;;;;;;6.85;4.10;;;10.90;87.00;;;;;;5073930;28;20016;-73
2021/05/05 03:29:35;;;;;;;10.32;3.55;;;11.00;87.80;;;;;;5073978;28;20044;-73
2021/05/05 03:32:01;;;;;;;10.27;4.05;;;11.00;89.20;;;;;;5073961;28;20023;-73
2021/05/05 03:34:27;;;;;;;7.10;3.97;;;11.00;89.50;;;;;;5074037;28;20030;-73
2021/05/05 03:36:53;;;;;;;8.63;4.00;;;10.90;90.50;;;;;;5073804;28;20038;-73
2021/05/05 03:39:18;;;;;;;5.32;3.50;;;10.90;90.30;;;;;;5073628;28;20032;-73
2021/05/05 03:41:44;;;;;;;6.00;4.10;;;10.90;90.70;;;;;;5074040;28;20524;-73
2021/05/05 03:44:10;;;;;;;7.95;3.67;;;11.00;90.60;;;;;;5073856;28;20052;-73
2021/05/05 03:46:37;;;;;;;14.77;4.13;;;11.10;90.00;;;;;;5073818;28;20099;-73
2021/05/05 03:49:05;;;;;;;12.05;4.75;;;11.20;89.00;;;;;;5073727;28;20034;-73
2021/05/05 03:51:31;;;;;;;8.20;4.38;;;11.30;89.50;;;;;;5055923;28;20024;-73
2021/05/05 03:53:57;;;;;;;17.08;4.43;;;11.40;87.50;;;;;;5073805;28;20032;-73
2021/05/05 03:56:23;;;;;;;6.28;3.95;;;11.30;88.00;;;;;;5073923;28;20082;-73
2021/05/05 03:58:49;;;;;;;6.22;4.90;;;11.40;87.60;;;;;;5055779;28;20127;-73
2021/05/05 04:01:14;;;;;;;6.38;3.90;;;11.40;87.20;;;;;;5073519;28;20035;-73
2021/05/05 04:03:40;;;;;;;10.60;4.28;;;11.40;87.20;;;;;;5055854;28;20029;-73
2021/05/05 04:06:07;;;;;;;5.30;4.35;;;11.40;86.40;;;;;;5055349;28;20100;-73
2021/05/05 04:08:33;;;;;;;10.18;4.65;;;11.50;86.30;;;;;;5055349;28;20028;-73
2021/05/05 04:10:58;;;;;;;8.40;3.95;;;11.60;85.80;;;;;;5055802;28;20151;-73
2021/05/05 04:13:24;;;;;;;9.07;4.28;;;11.70;84.50;;;;;;5055653;28;20153;-73
2021/05/05 04:15:50;;;;;;;5.60;3.83;;;11.70;84.10;;;;;;5055319;28;20153;-73
2021/05/05 04:18:15;;;;;;;5.32;3.83;;;11.60;86.20;;;;;;5073243;28;20020;-73
2021/05/05 04:20:42;;;;;;;10.45;4.45;;;11.50;87.20;;;;;;5055141;28;20020;-73
2021/05/05 04:23:08;;;;;;;5.50;3.92;;;11.60;87.50;;;;;;5038507;28;20111;-73
2021/05/05 04:25:34;;;;;;;5.93;3.85;;;11.60;86.70;;;;;;5073133;28;20071;-73
2021/05/05 04:27:59;;;;;;;5.95;4.07;;;11.40;86.60;;;;;;5073438;28;20464;-73
2021/05/05 04:30:25;;;;;;;10.60;4.15;;;11.50;85.90;;;;;;5055072;28;20032;-73
2021/05/05 04:32:51;;;;;;;8.38;4.18;;;11.50;86.30;;;;;;5073002;28;20079;-73
2021/05/05 04:35:19;;;;;;;8.55;4.00;;;11.60;85.70;;;;;;5073008;28;20471;-73
2021/05/05 04:37:45;;;;;;;8.45;4.30;;;11.40;86.80;;;;;;5072901;28;20391;-73
2021/05/05 04:40:11;;;;;;;5.63;3.58;;;11.30;87.50;;;;;;5072827;28;20025;-73
2021/05/05 04:42:37;;;;;;;9.65;3.50;;;11.50;85.90;;;;;;5055051;28;20479;-72
2021/05/05 04:45:08;;;;;;;9.15;4.07;;;11.40;87.20;;;;;;5073014;28;20031;-73
2021/05/05 04:47:35;;;;;;;5.97;3.90;;;11.30;87.80;;;;;;5073199;28;20219;-73
2021/05/05 04:50:03;;;;;;;5.18;3.33;;;11.20;87.60;;;;;;5054992;28;20021;-73
2021/05/05 04:52:29;;;;;;;8.35;3.95;;;11.20;88.90;;;;;;5054782;28;20025;-73
2021/05/05 04:54:54;;;;;;;8.15;4.13;;;11.20;88.40;;;;;;5072597;28;20506;-73
2021/05/05 04:57:20;;;;;;;8.02;3.92;;;11.30;88.40;;;;;;5038049;28;20089;-73
2021/05/05 04:59:46;;;;;;;7.60;4.32;;;11.20;89.20;;;;;;5038236;28;20071;-73
2021/05/05 05:02:12;;;;;;;6.18;3.40;;;11.30;88.50;;;;;;5067966;28;20024;-73
2021/05/05 05:04:38;;;;;;;5.43;3.78;;;11.40;87.60;;;;;;5050752;28;20052;-73
2021/05/05 05:07:05;;;;;;;9.15;4.07;;;11.30;86.90;;;;;;5037094;28;20020;-73
2021/05/05 05:09:32;;;;;;;13.13;4.60;;;11.20;87.20;;;;;;5054144;28;20063;-73
2021/05/05 05:11:58;;;;;;;5.53;3.30;;;11.20;87.60;;;;;;5039456;28;20031;-73
2021/05/05 05:14:24;;;;;;;5.72;4.22;;;11.40;87.50;;;;;;5075840;28;20020;-73
2021/05/05 05:16:50;;;;;;;9.95;4.15;;;11.40;87.10;;;;;;5057665;28;20035;-73
2021/05/05 05:19:16;;;;;;;4.70;3.50;;;11.30;87.10;;;;;;5075574;28;20070;-73
2021/05/05 05:21:41;;;;;;;9.48;3.72;;;11.40;86.90;;;;;;5058061;28;20035;-73
2021/05/05 05:24:08;;;;;;;6.22;3.70;;;11.20;88.00;;;;;;5057934;28;20061;-73
2021/05/05 05:26:34;;;;;;;3.88;3.17;;;11.10;88.70;;;;;;5073424;28;20358;-73
2021/05/05 05:29:01;;;;;;;4.47;3.45;;;11.10;89.40;;;;;;5075814;28;20025;-73
2021/05/05 05:31:27;;;;;;;6.68;3.58;;;11.10;90.00;;;;;;5074047;28;20029;-73
2021/05/05 05:33:53;;;;;;;7.00;3.90;;;11.10;90.70;;;;;;5058094;28;20028;-73
2021/05/05 05:36:19;;;;;;;4.50;3.55;;;11.20;91.20;;;;;;5057933;28;20429;-73
2021/05/05 05:38:45;;;;;;;10.68;4.75;;;11.10;92.20;;;;;;5041481;28;20142;-72
2021/05/05 05:41:11;;;;;;;8.27;4.10;;;11.00;95.70;;;;;;5040822;28;20414;-72
2021/05/05 05:43:37;;;;;;;9.77;5.38;;;11.10;99.90;;;;;;5057671;28;20031;-72
2021/05/05 05:46:03;;;;;;;7.07;5.05;;;11.00;99.90;;;;;;5057146;28;20016;-72
2021/05/05 05:48:29;;;;;;;19.65;5.80;;;11.10;99.90;;;;;;5072642;28;20055;-72
2021/05/05 05:50:55;;;;;;;8.60;6.22;;;10.90;99.90;;;;;;5074923;28;20048;-72
2021/05/05 05:53:21;;;;;;;5.45;4.72;;;10.90;99.90;;;;;;5056723;28;20020;-72
2021/05/05 05:55:47;;;;;;;6.05;2.70;;;10.90;99.90;;;;;;5065741;28;20021;-72
2021/05/05 06:00:42;;;;;;;2.42;2.22;;;10.10;99.90;;;;;;5031728;28;20450;-72
2021/05/05 06:03:08;;;;;;;5.20;2.83;;;9.80;99.90;;;;;;5025214;28;20096;-72
2021/05/05 06:05:34;;;;;;;3.20;2.20;;;9.60;99.90;;;;;;5033008;28;20395;-72
2021/05/05 06:08:01;;;;;;;2.40;1.83;;;9.50;99.90;;;;;;5033156;28;20037;-72
2021/05/05 06:10:27;;;;;;;2.78;2.10;;;9.50;99.90;;;;;;5020790;28;20017;-72
2021/05/05 06:12:53;;;;;;;5.35;1.92;;;9.60;99.90;;;;;;5017181;28;20031;-72
2021/05/05 06:15:20;;;;;;;2.35;1.42;;;9.40;99.90;;;;;;5026972;28;20026;-72
2021/05/05 06:17:46;;;;;;;2.15;1.50;;;9.40;99.90;;;;;;5034098;28;20131;-72
2021/05/05 06:20:12;;;;;;;3.40;2.17;;;9.40;99.90;;;;;;5033639;28;20081;-72
2021/05/05 06:22:41;;;;;;;5.28;2.00;;;9.40;99.90;;;;;;5033246;28;20052;-72
2021/05/05 06:25:08;;;;;;;3.20;2.10;;;9.30;99.90;;;;;;5033741;28;20018;-73
2021/05/05 06:27:35;;;;;;;5.82;2.80;;;9.20;99.90;;;;;;5033939;28;20024;-72
2021/05/05 06:30:01;;;;;;;4.20;2.42;;;9.20;99.90;;;;;;5034148;28;20028;-72
2021/05/05 06:32:26;;;;;;;2.97;2.20;;;9.20;99.90;;;;;;5033827;28;20460;-71
2021/05/05 06:34:53;;;;;;;5.05;2.50;;;9.20;99.90;;;;;;5027569;28;20033;-72
2021/05/05 06:37:20;;;;;;;8.88;3.08;;;9.20;99.90;;;;;;5017440;28;20037;-72
2021/05/05 06:39:45;;;;;;;6.53;2.55;;;9.10;99.90;;;;;;5029220;28;20080;-72
2021/05/05 06:42:11;;;;;;;8.98;2.53;;;8.90;99.90;;;;;;5013532;28;20025;-72
2021/05/05 06:44:37;;;;;;;4.35;2.45;;;8.90;99.90;;;;;;5033259;28;20048;-72
2021/05/05 06:47:03;;;;;;;4.40;2.22;;;8.80;99.90;;;;;;5032797;28;20096;-73
2021/05/05 06:49:34;;;;;;;2.70;2.10;;;8.70;99.90;;;;;;5025003;28;20104;-72
2021/05/05 06:52:00;;;;;;;6.57;2.40;;;8.60;99.90;;;;;;5033678;28;20018;-72
2021/05/05 06:54:26;;;;;;;9.18;3.25;;;8.60;99.90;;;;;;5032941;28;20052;-72
2021/05/05 06:56:51;;;;;;;6.50;2.55;;;8.70;99.90;;;;;;5021430;28;20022;-72
2021/05/05 06:59:17;;;;;;;3.40;2.55;;;8.80;99.90;;;;;;5002171;28;20530;-72
2021/05/05 07:01:43;;;;;;;5.35;1.95;;;8.70;99.90;;;;;;5010344;28;20029;-71
2021/05/05 07:04:10;;;;;;;24.40;2.78;;;8.60;99.90;;;;;;5029530;28;20029;-72
2021/05/05 07:06:36;;;;;;;3.08;1.73;;;8.60;99.90;;;;;;5033082;28;20111;-72
2021/05/05 07:09:04;;;;;;;2.47;1.45;;;8.50;99.90;;;;;;5033562;28;20045;-72
2021/05/05 07:11:32;;;;;;;4.03;1.40;;;8.50;99.90;;;;;;5032630;28;20029;-72
2021/05/05 07:13:58;;;;;;;6.80;1.58;;;8.40;99.90;;;;;;5021975;28;20040;-72
2021/05/05 07:16:25;;;;;;;14.50;4.85;;;8.40;99.90;;;;;;5033192;28;20026;-72
2021/05/05 07:18:51;;;;;;;15.30;5.50;;;8.50;99.90;;;;;;5021767;28;20018;-72
2021/05/05 07:21:16;;;;;;;9.45;3.00;;;8.70;99.90;;;;;;5032998;28;20041;-72
2021/05/05 07:23:43;;;;;;;26.52;10.48;;;8.70;99.90;;;;;;5032519;28;20053;-73
2021/05/05 07:26:10;;;;;;;25.27;6.78;;;8.90;99.90;;;;;;5033269;28;20490;-73
2021/05/05 07:28:37;;;;;;;7.82;3.30;;;8.90;99.90;;;;;;5032429;28;20100;-72
2021/05/05 07:31:03;;;;;;;9.07;3.55;;;8.80;99.90;;;;;;5033101;28;20472;-72
2021/05/05 07:33:30;;;;;;;3.15;1.55;;;9.00;99.90;;;;;;5014423;28;20018;-72
2021/05/05 07:35:57;;;;;;;2.45;1.67;;;8.70;99.90;;;;;;5021805;28;20026;-72
2021/05/05 07:48:59;;;;;;;7.13;1.23;;;8.50;99.90;;;;;;5009287;28;20103;-72
2021/05/05 07:51:25;;;;;;;1.70;0.63;;;8.70;99.90;;;;;;5015182;28;20061;-72
2021/05/05 07:53:52;;;;;;;1.02;0.70;;;8.40;99.90;;;;;;5032737;28;20063;-72
2021/05/05 07:56:18;;;;;;;2.53;0.73;;;8.20;99.90;;;;;;5027633;28;20105;-72
2021/05/05 07:58:45;;;;;;;1.95;1.45;;;8.10;99.90;;;;;;5018659;28;20041;-72
2021/05/05 08:01:12;;;;;;;1.45;0.75;;;8.20;99.90;;;;;;5032283;28;20013;-71
2021/05/05 08:03:38;;;;;;;3.13;0.68;;;8.10;99.90;;;;;;5031793;28;20106;-72
2021/05/05 08:06:04;;;;;;;5.45;0.75;;;8.20;99.90;;;;;;5032049;28;20547;-72
2021/05/05 08:08:30;;;;;;;3.05;1.05;;;8.20;99.90;;;;;;5031721;28;20023;-72
2021/05/05 08:10:56;;;;;;;0.60;0.60;;;8.00;99.90;;;;;;5032311;28;20108;-72
2021/05/05 08:13:22;;;;;;;3.25;1.80;;;8.00;99.90;;;;;;5030068;28;20044;-72
2021/05/05 08:15:48;;;;;;;3.28;1.80;;;7.80;99.90;;;;;;5031778;28;20057;-72
2021/05/05 08:18:14;;;;;;;0.73;0.70;;;7.50;99.90;;;;;;5032033;28;20104;-72
2021/05/05 08:20:42;;;;;;;6.10;1.40;;;7.30;99.90;;;;;;5020654;28;20532;-71
2021/05/05 08:23:09;;;;;;;1.88;0.80;;;7.40;99.90;;;;;;5031751;28;20465;-72
2021/05/05 08:25:35;;;;;;;1.02;0.70;;;7.40;99.90;;;;;;5031470;28;20029;-71
2021/05/05 08:28:01;;;;;;;1.38;0.70;;;7.40;99.90;;;;;;5014568;28;20032;-72
2021/05/05 08:30:27;;;;;;;2.53;0.90;;;7.30;99.90;;;;;;5030721;28;20033;-71
2021/05/05 08:32:53;;;;;;;1.15;0.70;;;7.20;99.90;;;;;;5018592;28;20029;-72
2021/05/05 08:35:19;;;;;;;3.85;1.42;;;7.30;99.90;;;;;;5002908;28;20480;-72
2021/05/05 08:37:48;;;;;;;1.55;1.13;;;7.30;99.90;;;;;;5031452;28;20192;-71
2021/05/05 08:40:14;;;;;;;13.30;2.05;;;7.10;99.90;;;;;;5022458;28;20037;-72
2021/05/05 08:42:43;;;;;;;1.73;1.30;;;7.10;99.90;;;;;;5031023;28;20076;-72
2021/05/05 08:45:30;;;;;;;2.90;1.55;;;7.20;99.90;;;;;;5031012;28;20113;-72
2021/05/05 08:47:59;;;;;;;13.00;2.22;;;7.20;99.90;;;;;;5024728;28;20408;-72
2021/05/05 08:50:28;;;;;;;6.07;1.35;;;7.40;99.90;;;;;;5031387;28;20056;-71
2021/05/05 08:52:54;;;;;;;0.52;0.52;;;7.50;99.90;;;;;;5030798;28;20531;-71
2021/05/05 08:55:22;;;;;;;3.92;0.60;;;7.40;99.90;;;;;;5023304;28;20026;-74
2021/05/05 08:57:49;;;;;;;1.27;0.70;;;7.50;99.90;;;;;;5031164;28;20037;-71
2021/05/05 09:00:20;;;;;;;5.45;1.30;;;7.50;99.90;;;;;;5021171;28;20112;-71
2021/05/05 09:02:46;;;;;;;4.85;1.38;;;7.70;99.90;;;;;;5005793;28;20022;-71
2021/05/05 09:05:13;;;;;;;82.88;6.13;;;7.80;99.90;;;;;;5031124;28;20508;-72
2021/05/05 09:07:42;;;;;;;6.35;1.45;;;7.80;99.90;;;;;;5030960;28;20017;-71
2021/05/05 09:10:10;;;;;;;8.43;1.27;;;8.00;99.90;;;;;;5031000;28;20072;-72
2021/05/05 09:12:39;;;;;;;1.92;0.80;;;8.20;99.90;;;;;;5031141;28;20036;-72
2021/05/05 09:15:07;;;;;;;1.50;0.88;;;8.00;99.90;;;;;;5031300;28;20048;-72
2021/05/05 09:17:35;;;;;;;1.95;0.80;;;7.80;99.90;;;;;;5022067;28;20096;-72
2021/05/05 09:20:07;;;;;;;1.58;0.70;;;7.60;99.90;;;;;;5012075;28;20025;-71
2021/05/05 09:22:41;;;;;;;1.95;0.80;;;7.70;99.90;;;;;;5027721;28;20037;-71
2021/05/05 09:25:10;;;;;;;1.77;0.90;;;7.80;99.90;;;;;;5026281;28;20493;-72
2021/05/05 09:27:37;;;;;;;2.70;1.40;;;7.80;99.90;;;;;;5030229;28;20028;-71
2021/05/05 09:30:18;;;;;;;1.52;1.00;;;7.90;99.90;;;;;;5031101;28;20036;-71
2021/05/05 09:32:49;;;;;;;3.20;0.77;;;7.90;99.90;;;;;;5031101;28;20097;-71
2021/05/05 09:35:16;;;;;;;4.90;1.15;;;7.90;99.90;;;;;;5021864;28;20044;-71
2021/05/05 09:37:53;;;;;;;5.10;1.65;;;7.90;99.90;;;;;;5030822;28;20098;-71
2021/05/05 09:40:19;;;;;;;2.25;0.95;;;8.10;99.90;;;;;;5001880;28;20035;-70
2021/05/05 09:42:45;;;;;;;0.63;0.52;;;8.20;99.90;;;;;;5017906;28;20120;-70
2021/05/05 09:45:12;;;;;;;1.38;0.80;;;8.10;99.90;;;;;;5030259;28;20082;-70
2021/05/05 09:47:58;;;;;;;0.70;0.70;;;8.00;99.90;;;;;;5031081;28;20496;-71
2021/05/05 09:50:35;;;;;;;5.60;0.90;;;8.30;99.90;;;;;;5027522;28;20105;-72
2021/05/05 09:53:32;;;;;;;0.88;0.63;;;8.40;99.90;;;;;;5024680;28;20036;-71
2021/05/05 09:55:58;;;;;;;0.98;0.88;;;7.90;99.90;;;;;;5007427;28;20639;-71
2021/05/05 09:58:24;;;;;;;1.33;0.88;;;8.20;99.90;;;;;;5032826;28;20053;-71
2021/05/05 10:01:05;;;;;;;3.78;1.42;;;8.20;99.90;;;;;;5034488;28;20083;-71
2021/05/05 10:03:54;;;;;;;0.93;0.93;;;8.20;99.90;;;;;;5034848;28;20025;-70
2021/05/05 10:06:29;;;;;;;1.10;1.00;;;8.30;99.90;;;;;;5036071;28;20053;-71
2021/05/05 10:08:57;;;;;;;4.40;1.70;;;8.20;99.90;;;;;;5034775;28;20026;-71
2021/05/05 10:11:28;;;;;;;3.65;1.65;;;8.40;99.90;;;;;;5025834;28;20453;-71
2021/05/05 10:13:56;;;;;;;2.28;1.50;;;8.50;99.90;;;;;;5035291;28;20025;-71
2021/05/05 10:16:23;;;;;;;1.23;1.10;;;8.50;99.90;;;;;;5026866;28;20333;-71
2021/05/05 10:18:50;;;;;;;2.40;1.10;;;8.20;99.90;;;;;;5025657;28;20109;-70
2021/05/05 10:21:20;;;;;;;4.88;0.90;;;8.20;99.90;;;;;;5034120;28;20109;-71
2021/05/05 10:23:47;;;;;;;1.92;0.88;;;8.20;99.90;;;;;;5033834;28;20022;-71
2021/05/05 10:26:13;;;;;;;1.67;1.10;;;8.40;99.90;;;;;;5033191;28;20017;-70
2021/05/05 10:28:39;;;;;;;4.00;1.67;;;8.40;99.90;;;;;;5033963;28;20033;-71
2021/05/05 10:31:18;;;;;;;1.83;1.13;;;8.50;99.90;;;;;;5028131;28;20037;-71
2021/05/05 10:33:46;;;;;;;3.13;1.35;;;8.50;99.90;;;;;;5023610;28;20600;-70
2021/05/05 10:36:33;;;;;;;1.30;1.20;;;8.40;99.90;;;;;;5033629;28;20032;-71
2021/05/05 10:39:01;;;;;;;1.00;1.00;;;8.50;99.90;;;;;;5021184;28;20025;-71
2021/05/05 10:41:27;;;;;;;0.80;0.80;;;8.50;99.90;;;;;;5031288;28;20026;-71
2021/05/05 10:43:57;;;;;;;0.82;0.80;;;8.60;99.90;;;;;;5033921;28;20014;-71
2021/05/05 10:46:31;;;;;;;1.35;1.15;;;8.70;99.90;;;;;;5029394;28;20030;-71
2021/05/05 10:49:12;;;;;;;3.05;1.23;;;8.80;99.90;;;;;;5025469;28;20029;-71
2021/05/05 10:51:44;;;;;;;3.40;1.27;;;8.90;99.90;;;;;;5016057;28;20032;-71
2021/05/05 10:54:14;;;;;;;1.83;1.48;;;9.40;99.90;;;;;;5033916;28;20053;-71
2021/05/05 10:56:44;;;;;;;2.92;1.20;;;9.40;99.90;;;;;;5015951;28;20048;-71
2021/05/05 10:59:11;;;;;;;1.48;1.15;;;9.10;99.90;;;;;;5022728;28;20118;-71
2021/05/05 11:01:50;;;;;;;2.55;1.42;;;9.20;99.90;;;;;;5028208;28;20033;-71
2021/05/05 11:04:16;;;;;;;3.20;1.00;;;9.20;99.90;;;;;;5031220;28;20028;-71
2021/05/05 11:06:50;;;;;;;6.07;1.23;;;9.00;99.90;;;;;;5033374;28;20029;-70
2021/05/05 11:09:17;;;;;;;1.52;1.10;;;8.60;99.90;;;;;;5006796;28;20076;-71
2021/05/05 11:11:45;;;;;;;3.70;1.10;;;8.50;99.90;;;;;;5033341;28;20030;-71
2021/05/05 11:14:37;;;;;;;1.20;1.10;;;8.70;99.90;;;;;;5025138;28;20435;-71
2021/05/05 11:17:06;;;;;;;1.38;0.90;;;8.80;99.90;;;;;;5015826;28;20461;-71
2021/05/05 11:19:37;;;;;;;3.10;1.10;;;8.50;99.90;;;;;;5025660;28;20032;-71
2021/05/05 11:22:07;;;;;;;;;;;8.20;99.90;;;;;;5012674;28;20022;-71
2021/05/05 11:24:40;;;;;;;16.58;1.38;;;8.00;99.90;;;;;;5015508;28;19929;-71
2021/05/05 11:27:09;;;;;;;10.27;2.80;;;8.20;99.90;;;;;;5033257;28;20079;-71
2021/05/05 11:29:38;;;;;;;3.78;1.60;;;8.30;99.90;;;;;;5014751;28;20351;-71
2021/05/05 11:32:30;;;;;;;2.42;0.95;;;8.00;99.90;;;;;;5018705;28;20504;-71
2021/05/05 11:34:56;;;;;;;;;;;8.00;99.90;;;;;;5015962;28;20034;-71
2021/05/05 11:37:29;;;;;;;4.20;0.88;;;7.70;99.90;;;;;;5023048;28;19909;-71
2021/05/05 11:39:57;;;;;;;0.70;0.57;;;7.60;99.90;;;;;;5033136;28;20025;-71
2021/05/05 11:42:23;;;;;;;2.38;1.10;;;7.40;99.90;;;;;;5032439;28;20210;-71
2021/05/05 11:44:52;;;;;;;2.78;0.77;;;7.40;99.90;;;;;;5003802;28;20413;-71
2021/05/05 11:47:33;;;;;;;18.58;2.63;;;7.20;99.90;;;;;;5026933;28;20100;-71
2021/05/05 11:50:04;;;;;;;6.28;3.10;;;7.20;99.90;;;;;;5019526;28;20060;-71
2021/05/05 11:53:03;;;;;;;5.72;1.80;;;7.00;99.90;;;;;;5018886;28;20451;-71
2021/05/05 11:55:34;;;;;;;34.80;3.83;;;7.10;99.90;;;;;;4975943;28;20057;-71
2021/05/05 11:58:00;;;;;;;18.23;2.08;;;7.30;99.90;;;;;;5020527;28;20032;-72
2021/05/05 12:00:33;;;;;;;6.25;2.05;;;7.20;99.90;;;;;;5022566;28;20045;-71
2021/05/05 12:02:59;;;;;;;16.65;2.20;;;7.30;99.90;;;;;;5022075;28;20013;-72
2021/05/05 12:05:37;;;;;;;7.25;0.90;;;7.70;99.90;;;;;;5025649;28;20044;-72
2021/05/05 12:08:16;;;;;;;1.05;0.95;;;7.90;99.90;;;;;;5030059;28;20028;-71
2021/05/05 12:10:52;;;;;;;2.80;1.10;;;7.70;99.90;;;;;;5006017;28;20750;-71
2021/05/05 12:13:26;;;;;;;3.63;1.00;;;7.70;99.90;;;;;;5008027;28;20449;-71
2021/05/05 12:16:07;;;;;;;3.60;1.73;;;8.00;99.90;;;;;;5030896;28;20473;-71
2021/05/05 12:18:44;;;;;;;1.42;1.15;;;8.20;99.90;;;;;;4999924;28;20060;-71
2021/05/05 12:21:16;;;;;;;1.52;1.20;;;8.30;99.90;;;;;;5031806;28;20033;-71
2021/05/05 12:24:01;;;;;;;7.43;1.37;;;8.50;99.90;;;;;;5019894;28;20056;-71
2021/05/05 12:26:29;;;;;;;1.95;1.17;;;8.70;99.90;;;;;;5023505;28;20021;-71
2021/05/05 12:29:03;;;;;;;0.75;0.65;;;8.80;99.90;;;;;;5020042;28;20036;-71
2021/05/05 12:31:34;;;;;;;2.70;1.13;;;9.30;99.90;;;;;;5031681;28;20029;-71
2021/05/05 12:34:03;;;;;;;3.08;1.10;;;10.00;99.90;;;;;;5031816;28;20033;-71
2021/05/05 12:36:34;;;;;;;3.13;1.30;;;10.30;99.90;;;;;;5031303;28;20083;-71
2021/05/05 12:39:03;;;;;;;5.70;1.15;;;10.30;99.90;;;;;;5031493;28;20105;-71
2021/05/05 12:41:59;;;;;;;3.10;1.10;;;10.40;99.90;;;;;;5025452;28;20033;-71
2021/05/05 12:44:36;;;;;;;1.58;1.23;;;10.20;98.60;;;;;;5026792;28;20030;-71
2021/05/05 12:47:08;;;;;;;4.30;1.38;;;10.00;98.40;;;;;;5025423;28;20028;-71
2021/05/05 12:49:36;;;;;;;13.13;3.15;;;9.80;98.20;;;;;;5020345;28;20030;-71
2021/05/05 12:52:23;;;;;;;10.13;1.77;;;9.80;96.80;;;;;;5031003;28;20022;-70
2021/05/05 12:54:49;;;;;;;8.10;1.50;;;10.10;95.90;;;;;;5018815;28;20021;-72
2021/05/05 12:57:21;;;;;;;20.70;2.72;;;10.10;93.00;;;;;;5030991;28;20071;-71
2021/05/05 12:59:49;;;;;;;7.57;1.60;;;10.30;91.00;;;;;;5031279;28;20443;-71
2021/05/05 13:02:26;;;;;;;5.38;1.48;;;10.00;89.60;;;;;;5030967;28;20334;-72
2021/05/05 13:05:03;;;;;;;7.65;2.00;;;10.40;91.80;;;;;;5024215;28;20434;-72
2021/05/05 13:07:41;;;;;;;8.55;2.15;;;10.40;85.20;;;;;;5003838;28;20097;-71
2021/05/05 13:10:20;;;;;;;5.43;2.08;;;10.40;86.30;;;;;;5021278;28;20021;-71